Stolt Dipper — ZCMY3 — position and weather

sailwx.info

Track history (hours):
 
Tides and Currents Weather Stations Pressure Air Temp Water Temp Dewpoint Dewpoint Depression Visibility Wind Speed Wind Dir Waves Ship Positions

Stolt Dipper

Last reported at 2014-Sep-22 13:24 UTC. Time now 2014-Sep-22 14:16 UTC.
Position N 51°16' E 004°22'.

Length 96 m; draft 6.5 m.

Type: Ship (hazmat cat B). MMSI: 319036000.

Date/timePositionNaut miles runAvg speedWind from/ knotsBaromVisibWave heightAir tempDewpointWater temp
2014-Sep-22 13:24N 51°16' E 004°22'0 0.0
2014-Sep-22 12:27N 51°16' E 004°22'0 0.0
2014-Sep-22 11:30N 51°16' E 004°22'0 0.0
2014-Sep-22 10:30N 51°16' E 004°22'0 0.0
2014-Sep-22 09:33N 51°16' E 004°22'0 0.0
2014-Sep-22 08:33N 51°16' E 004°22'0 0.0
2014-Sep-22 07:33N 51°16' E 004°22'0 0.0
2014-Sep-22 06:33N 51°16' E 004°22'0 0.0
2014-Sep-22 05:33N 51°16' E 004°22'0 0.0
2014-Sep-22 04:33N 51°16' E 004°22'0 0.0
2014-Sep-22 03:33N 51°16' E 004°22'0 0.0
2014-Sep-22 02:33N 51°16' E 004°22'0 0.0
2014-Sep-22 01:33N 51°16' E 004°22'0 0.0
2014-Sep-22 00:33N 51°16' E 004°22'0 0.0
2014-Sep-21 23:33N 51°16' E 004°22'0 0.0
2014-Sep-21 22:33N 51°16' E 004°22'0 0.0
2014-Sep-21 21:24N 51°16' E 004°22'0 0.0
2014-Sep-21 20:33N 51°16' E 004°22'0 0.0
2014-Sep-21 19:33N 51°16' E 004°22'0 0.0
2014-Sep-21 18:30N 51°16' E 004°22'0 0.0
2014-Sep-21 17:33N 51°16' E 004°22'0 0.0
2014-Sep-21 16:33N 51°16' E 004°22'0 0.0
2014-Sep-21 15:27N 51°16' E 004°22'0 0.0
2014-Sep-21 14:33N 51°16' E 004°22'0 0.1
2014-Sep-21 13:31N 51°15' E 004°22'0 0.0
2014-Sep-21 12:31N 51°15' E 004°22'0 0.0
2014-Sep-21 11:31N 51°15' E 004°22'0 0.0
2014-Sep-21 10:31N 51°15' E 004°22'0 0.0
2014-Sep-21 09:28N 51°15' E 004°22'0 0.0
2014-Sep-21 08:28N 51°15' E 004°22'0 0.0
2014-Sep-21 07:31N 51°15' E 004°22'0 0.0
2014-Sep-21 06:31N 51°15' E 004°22'0 0.0
2014-Sep-21 05:31N 51°15' E 004°22'0 0.0
2014-Sep-21 04:28N 51°15' E 004°22'0 0.0
2014-Sep-21 03:31N 51°15' E 004°22'0 0.0
2014-Sep-21 02:28N 51°15' E 004°22'0 0.0
2014-Sep-21 01:31N 51°15' E 004°22'0 0.0
2014-Sep-21 00:31N 51°15' E 004°22'0 0.0
2014-Sep-20 23:28N 51°15' E 004°22'0 0.0
2014-Sep-20 22:32N 51°15' E 004°22'6 6.0
2014-Sep-20 21:34N 51°21' E 004°17'0 0.0
2014-Sep-20 20:34N 51°21' E 004°17'4 3.5
2014-Sep-20 19:33N 51°23' E 004°13'9 9.3
2014-Sep-20 18:33N 51°26' E 003°59'10 9.6
2014-Sep-20 17:34N 51°22' E 003°45'9 9.0
2014-Sep-20 16:33N 51°27' E 003°33'1110.9
2014-Sep-20 15:33N 51°36' E 003°23'1212.2
2014-Sep-20 14:33N 51°47' E 003°14'1211.6
2014-Sep-20 13:33N 51°58' E 003°19'1311.8
2014-Sep-20 12:28N 52°11' E 003°22'2311.6
2014-Sep-20 10:31N 52°33' E 003°29'1212.4
2014-Sep-20 09:33N 52°43' E 003°39'1313.3
2014-Sep-20 08:33N 52°54' E 003°53'1413.4
2014-Sep-20 07:32N 53°03' E 004°10'1313.2
2014-Sep-20 06:34N 53°11' E 004°26'1612.9
2014-Sep-20 05:20N 53°26' E 004°36'911.3
2014-Sep-20 04:33N 53°30' E 004°49'1211.6
2014-Sep-20 03:33N 53°35' E 005°07'1211.6
2014-Sep-20 02:34N 53°38' E 005°26'1212.3
2014-Sep-20 01:33N 53°42' E 005°45'1313.1
2014-Sep-20 00:34N 53°46' E 006°06'1413.6
2014-Sep-19 23:33N 53°50' E 006°28'2013.6
2014-Sep-19 22:06N 53°55' E 007°01'2013.1
2014-Sep-19 20:33N 54°00' E 007°34'1212.4
2014-Sep-19 19:34N 54°01' E 007°55'1211.6
2014-Sep-19 18:34N 54°00' E 008°15'1111.3
2014-Sep-19 17:33N 53°58' E 008°34'1211.7
2014-Sep-19 16:33N 53°50' E 008°49'1413.8
2014-Sep-19 15:33N 53°53' E 009°12'1413.9
2014-Sep-19 14:32N 53°43' E 009°29'4 0.2
2014-Sep-18 14:26N 53°39' E 009°31'9 9.8
2014-Sep-18 13:34N 53°34' E 009°42'10 9.7
2014-Sep-18 12:33N 53°30' E 009°57'0 0.0
2014-Sep-18 11:32N 53°30' E 009°57'0 0.0
2014-Sep-18 10:23N 53°30' E 009°57'0 0.0
2014-Sep-18 09:29N 53°30' E 009°57'0 0.0
2014-Sep-18 08:29N 53°30' E 009°57'0 0.0
2014-Sep-18 07:32N 53°30' E 009°57'0 0.0
2014-Sep-18 06:29N 53°30' E 009°57'0 0.0
2014-Sep-18 05:23N 53°30' E 009°57'0 0.0
2014-Sep-18 04:32N 53°30' E 009°57'0 0.0
2014-Sep-18 03:29N 53°30' E 009°57'0 0.0
2014-Sep-18 02:29N 53°30' E 009°57'0 0.0
2014-Sep-18 01:29N 53°30' E 009°57'0 0.0
2014-Sep-18 00:32N 53°30' E 009°57'0 0.0
2014-Sep-17 23:29N 53°30' E 009°57'0 0.0
2014-Sep-17 22:29N 53°30' E 009°57'0 0.0
2014-Sep-17 21:32N 53°30' E 009°57'0 0.0
2014-Sep-17 20:29N 53°30' E 009°57'0 0.0
2014-Sep-17 19:32N 53°30' E 009°57'0 0.4
2014-Sep-17 18:33N 53°30' E 009°57'1 1.5
2014-Sep-17 17:33N 53°32' E 009°58'0 0.0
2014-Sep-17 16:27N 53°32' E 009°58'0 0.0
2014-Sep-17 15:30N 53°32' E 009°58'0 0.0
2014-Sep-17 14:33N 53°32' E 009°58'0 0.0
2014-Sep-17 13:30N 53°32' E 009°58'0 0.0
2014-Sep-17 12:27N 53°32' E 009°58'0 0.0
2014-Sep-17 11:33N 53°32' E 009°58'0 0.0
2014-Sep-17 10:33N 53°32' E 009°58'0 0.0
2014-Sep-17 09:33N 53°32' E 009°58'0 0.0
2014-Sep-17 08:33N 53°32' E 009°58'1 0.7
2014-Sep-17 07:33N 53°32' E 009°59'0 0.0
2014-Sep-17 06:27N 53°32' E 009°59'0 0.0
2014-Sep-17 05:33N 53°32' E 009°59'0 0.0
2014-Sep-17 04:27N 53°32' E 009°59'0 0.0
2014-Sep-17 03:33N 53°32' E 009°59'0 0.0
2014-Sep-17 02:33N 53°32' E 009°59'0 0.0
2014-Sep-17 01:27N 53°32' E 009°59'0 0.0
2014-Sep-17 00:33N 53°32' E 009°59'0 0.0
2014-Sep-16 23:33N 53°32' E 009°59'0 0.0
2014-Sep-16 22:33N 53°32' E 009°59'0 0.0
2014-Sep-16 21:27N 53°32' E 009°59'0 0.0
2014-Sep-16 20:33N 53°32' E 009°59'0 0.0
2014-Sep-16 19:33N 53°32' E 009°59'0 0.0
2014-Sep-16 18:30N 53°32' E 009°59'0 0.0
2014-Sep-16 17:33N 53°32' E 009°59'0 0.0
2014-Sep-16 16:33N 53°32' E 009°59'0 0.0
2014-Sep-16 15:27N 53°32' E 009°59'0 0.0
2014-Sep-16 14:27N 53°32' E 009°59'0 0.0
2014-Sep-16 13:21N 53°32' E 009°59'0 0.0
2014-Sep-16 12:33N 53°32' E 009°59'0 0.0
2014-Sep-16 11:33N 53°32' E 009°59'0 0.0
2014-Sep-16 10:27N 53°32' E 009°59'0 0.0
2014-Sep-16 09:33N 53°32' E 009°59'0 0.0
2014-Sep-16 08:33N 53°32' E 009°59'0 0.0
2014-Sep-16 07:33N 53°32' E 009°59'0 0.0
2014-Sep-16 06:33N 53°32' E 009°59'0 0.0
2014-Sep-16 05:28N 53°32' E 009°59'6 7.1
2014-Sep-16 04:33N 53°33' E 009°48'1111.2
2014-Sep-16 03:34N 53°38' E 009°31'1111.1
2014-Sep-16 02:34N 53°48' E 009°22'1110.5
2014-Sep-16 01:34N 53°53' E 009°06'1211.5
2014-Sep-16 00:33N 53°50' E 008°47'1211.6
2014-Sep-15 23:34N 53°58' E 008°32'1211.9
2014-Sep-15 22:33N 53°60' E 008°12'4 4.1
2014-Sep-15 21:29N 54°03' E 008°07'0 0.0
2014-Sep-15 20:32N 54°03' E 008°07'0 0.0
2014-Sep-15 19:32N 54°03' E 008°07'0 0.0
2014-Sep-15 18:29N 54°03' E 008°07'0 0.1
2014-Sep-15 17:29N 54°03' E 008°07'0 0.0
2014-Sep-15 16:32N 54°03' E 008°07'0 0.1
2014-Sep-15 15:29N 54°03' E 008°07'0 0.0
2014-Sep-15 14:29N 54°03' E 008°07'5 5.7
2014-Sep-15 13:33N 53°59' E 008°01'5713.4
2014-Sep-15 09:18N 53°45' E 006°27'912.6
2014-Sep-15 08:33N 53°42' E 006°12'1212.1
2014-Sep-15 07:33N 53°39' E 005°53'1211.7
2014-Sep-15 06:33N 53°35' E 005°34'1111.2
2014-Sep-15 05:33N 53°32' E 005°16'1111.1
2014-Sep-15 04:33N 53°28' E 004°58'7911.3
2014-Sep-14 21:33N 52°20' E 003°52'1312.9
2014-Sep-14 20:33N 52°07' E 003°54'9 9.3
2014-Sep-14 19:33N 51°59' E 004°03'1111.3
2014-Sep-14 18:34N 51°54' E 004°19'1 0.0
2014-Sep-13 18:24N 51°53' E 004°21'0 0.0
2014-Sep-13 03:18N 51°53' E 004°21'0 0.0
2014-Sep-12 15:24N 51°53' E 004°21'2 1.8
2014-Sep-12 14:33N 51°54' E 004°18'1111.1
2014-Sep-12 13:34N 51°59' E 004°03'  
Track history (hours):
 
Tides and Currents Weather Stations Pressure Air Temp Water Temp Dewpoint Dewpoint Depression Visibility Wind Speed Wind Dir Waves Ship Positions

Stolt Dipper

Last reported at 2014-Sep-22 13:24 UTC. Time now 2014-Sep-22 14:16 UTC.
Position N 51°16' E 004°22'.

Length 96 m; draft 6.5 m.

Type: Ship (hazmat cat B). MMSI: 319036000.

Date/timePositionNaut miles runAvg speedWind from/ knotsBaromVisibWave heightAir tempDewpointWater temp
2014-Sep-22 13:24N 51°16' E 004°22'0 0.0
2014-Sep-22 12:27N 51°16' E 004°22'0 0.0
2014-Sep-22 11:30N 51°16' E 004°22'0 0.0
2014-Sep-22 10:30N 51°16' E 004°22'0 0.0
2014-Sep-22 09:33N 51°16' E 004°22'0 0.0
2014-Sep-22 08:33N 51°16' E 004°22'0 0.0
2014-Sep-22 07:33N 51°16' E 004°22'0 0.0
2014-Sep-22 06:33N 51°16' E 004°22'0 0.0
2014-Sep-22 05:33N 51°16' E 004°22'0 0.0
2014-Sep-22 04:33N 51°16' E 004°22'0 0.0
2014-Sep-22 03:33N 51°16' E 004°22'0 0.0
2014-Sep-22 02:33N 51°16' E 004°22'0 0.0
2014-Sep-22 01:33N 51°16' E 004°22'0 0.0
2014-Sep-22 00:33N 51°16' E 004°22'0 0.0
2014-Sep-21 23:33N 51°16' E 004°22'0 0.0
2014-Sep-21 22:33N 51°16' E 004°22'0 0.0
2014-Sep-21 21:24N 51°16' E 004°22'0 0.0
2014-Sep-21 20:33N 51°16' E 004°22'0 0.0
2014-Sep-21 19:33N 51°16' E 004°22'0 0.0
2014-Sep-21 18:30N 51°16' E 004°22'0 0.0
2014-Sep-21 17:33N 51°16' E 004°22'0 0.0
2014-Sep-21 16:33N 51°16' E 004°22'0 0.0
2014-Sep-21 15:27N 51°16' E 004°22'0 0.0
2014-Sep-21 14:33N 51°16' E 004°22'0 0.1
2014-Sep-21 13:31N 51°15' E 004°22'0 0.0
2014-Sep-21 12:31N 51°15' E 004°22'0 0.0
2014-Sep-21 11:31N 51°15' E 004°22'0 0.0
2014-Sep-21 10:31N 51°15' E 004°22'0 0.0
2014-Sep-21 09:28N 51°15' E 004°22'0 0.0
2014-Sep-21 08:28N 51°15' E 004°22'0 0.0
2014-Sep-21 07:31N 51°15' E 004°22'0 0.0
2014-Sep-21 06:31N 51°15' E 004°22'0 0.0
2014-Sep-21 05:31N 51°15' E 004°22'0 0.0
2014-Sep-21 04:28N 51°15' E 004°22'0 0.0
2014-Sep-21 03:31N 51°15' E 004°22'0 0.0
2014-Sep-21 02:28N 51°15' E 004°22'0 0.0
2014-Sep-21 01:31N 51°15' E 004°22'0 0.0
2014-Sep-21 00:31N 51°15' E 004°22'0 0.0
2014-Sep-20 23:28N 51°15' E 004°22'0 0.0
2014-Sep-20 22:32N 51°15' E 004°22'6 6.0
2014-Sep-20 21:34N 51°21' E 004°17'0 0.0
2014-Sep-20 20:34N 51°21' E 004°17'4 3.5
2014-Sep-20 19:33N 51°23' E 004°13'9 9.3
2014-Sep-20 18:33N 51°26' E 003°59'10 9.6
2014-Sep-20 17:34N 51°22' E 003°45'9 9.0
2014-Sep-20 16:33N 51°27' E 003°33'1110.9
2014-Sep-20 15:33N 51°36' E 003°23'1212.2
2014-Sep-20 14:33N 51°47' E 003°14'1211.6
2014-Sep-20 13:33N 51°58' E 003°19'1311.8
2014-Sep-20 12:28N 52°11' E 003°22'2311.6
2014-Sep-20 10:31N 52°33' E 003°29'1212.4
2014-Sep-20 09:33N 52°43' E 003°39'1313.3
2014-Sep-20 08:33N 52°54' E 003°53'1413.4
2014-Sep-20 07:32N 53°03' E 004°10'1313.2
2014-Sep-20 06:34N 53°11' E 004°26'1612.9
2014-Sep-20 05:20N 53°26' E 004°36'911.3
2014-Sep-20 04:33N 53°30' E 004°49'1211.6
2014-Sep-20 03:33N 53°35' E 005°07'1211.6
2014-Sep-20 02:34N 53°38' E 005°26'1212.3
2014-Sep-20 01:33N 53°42' E 005°45'1313.1
2014-Sep-20 00:34N 53°46' E 006°06'1413.6
2014-Sep-19 23:33N 53°50' E 006°28'2013.6
2014-Sep-19 22:06N 53°55' E 007°01'2013.1
2014-Sep-19 20:33N 54°00' E 007°34'1212.4
2014-Sep-19 19:34N 54°01' E 007°55'1211.6
2014-Sep-19 18:34N 54°00' E 008°15'1111.3
2014-Sep-19 17:33N 53°58' E 008°34'1211.7
2014-Sep-19 16:33N 53°50' E 008°49'1413.8
2014-Sep-19 15:33N 53°53' E 009°12'1413.9
2014-Sep-19 14:32N 53°43' E 009°29'4 0.2
2014-Sep-18 14:26N 53°39' E 009°31'9 9.8
2014-Sep-18 13:34N 53°34' E 009°42'10 9.7
2014-Sep-18 12:33N 53°30' E 009°57'0 0.0
2014-Sep-18 11:32N 53°30' E 009°57'0 0.0
2014-Sep-18 10:23N 53°30' E 009°57'0 0.0
2014-Sep-18 09:29N 53°30' E 009°57'0 0.0
2014-Sep-18 08:29N 53°30' E 009°57'0 0.0
2014-Sep-18 07:32N 53°30' E 009°57'0 0.0
2014-Sep-18 06:29N 53°30' E 009°57'0 0.0
2014-Sep-18 05:23N 53°30' E 009°57'0 0.0
2014-Sep-18 04:32N 53°30' E 009°57'0 0.0
2014-Sep-18 03:29N 53°30' E 009°57'0 0.0
2014-Sep-18 02:29N 53°30' E 009°57'0 0.0
2014-Sep-18 01:29N 53°30' E 009°57'0 0.0
2014-Sep-18 00:32N 53°30' E 009°57'0 0.0
2014-Sep-17 23:29N 53°30' E 009°57'0 0.0
2014-Sep-17 22:29N 53°30' E 009°57'0 0.0
2014-Sep-17 21:32N 53°30' E 009°57'0 0.0
2014-Sep-17 20:29N 53°30' E 009°57'0 0.0
2014-Sep-17 19:32N 53°30' E 009°57'0 0.4
2014-Sep-17 18:33N 53°30' E 009°57'1 1.5
2014-Sep-17 17:33N 53°32' E 009°58'0 0.0
2014-Sep-17 16:27N 53°32' E 009°58'0 0.0
2014-Sep-17 15:30N 53°32' E 009°58'0 0.0
2014-Sep-17 14:33N 53°32' E 009°58'0 0.0
2014-Sep-17 13:30N 53°32' E 009°58'0 0.0
2014-Sep-17 12:27N 53°32' E 009°58'0 0.0
2014-Sep-17 11:33N 53°32' E 009°58'0 0.0
2014-Sep-17 10:33N 53°32' E 009°58'0 0.0
2014-Sep-17 09:33N 53°32' E 009°58'0 0.0
2014-Sep-17 08:33N 53°32' E 009°58'1 0.7
2014-Sep-17 07:33N 53°32' E 009°59'0 0.0
2014-Sep-17 06:27N 53°32' E 009°59'0 0.0
2014-Sep-17 05:33N 53°32' E 009°59'0 0.0
2014-Sep-17 04:27N 53°32' E 009°59'0 0.0
2014-Sep-17 03:33N 53°32' E 009°59'0 0.0
2014-Sep-17 02:33N 53°32' E 009°59'0 0.0
2014-Sep-17 01:27N 53°32' E 009°59'0 0.0
2014-Sep-17 00:33N 53°32' E 009°59'0 0.0
2014-Sep-16 23:33N 53°32' E 009°59'0 0.0
2014-Sep-16 22:33N 53°32' E 009°59'0 0.0
2014-Sep-16 21:27N 53°32' E 009°59'0 0.0
2014-Sep-16 20:33N 53°32' E 009°59'0 0.0
2014-Sep-16 19:33N 53°32' E 009°59'0 0.0
2014-Sep-16 18:30N 53°32' E 009°59'0 0.0
2014-Sep-16 17:33N 53°32' E 009°59'0 0.0
2014-Sep-16 16:33N 53°32' E 009°59'0 0.0
2014-Sep-16 15:27N 53°32' E 009°59'0 0.0
2014-Sep-16 14:27N 53°32' E 009°59'0 0.0
2014-Sep-16 13:21N 53°32' E 009°59'0 0.0
2014-Sep-16 12:33N 53°32' E 009°59'0 0.0
2014-Sep-16 11:33N 53°32' E 009°59'0 0.0
2014-Sep-16 10:27N 53°32' E 009°59'0 0.0
2014-Sep-16 09:33N 53°32' E 009°59'0 0.0
2014-Sep-16 08:33N 53°32' E 009°59'0 0.0
2014-Sep-16 07:33N 53°32' E 009°59'0 0.0
2014-Sep-16 06:33N 53°32' E 009°59'0 0.0
2014-Sep-16 05:28N 53°32' E 009°59'6 7.1
2014-Sep-16 04:33N 53°33' E 009°48'1111.2
2014-Sep-16 03:34N 53°38' E 009°31'1111.1
2014-Sep-16 02:34N 53°48' E 009°22'1110.5
2014-Sep-16 01:34N 53°53' E 009°06'1211.5
2014-Sep-16 00:33N 53°50' E 008°47'1211.6
2014-Sep-15 23:34N 53°58' E 008°32'1211.9
2014-Sep-15 22:33N 53°60' E 008°12'4 4.1
2014-Sep-15 21:29N 54°03' E 008°07'0 0.0
2014-Sep-15 20:32N 54°03' E 008°07'0 0.0
2014-Sep-15 19:32N 54°03' E 008°07'0 0.0
2014-Sep-15 18:29N 54°03' E 008°07'0 0.1
2014-Sep-15 17:29N 54°03' E 008°07'0 0.0
2014-Sep-15 16:32N 54°03' E 008°07'0 0.1
2014-Sep-15 15:29N 54°03' E 008°07'0 0.0
2014-Sep-15 14:29N 54°03' E 008°07'5 5.7
2014-Sep-15 13:33N 53°59' E 008°01'5713.4
2014-Sep-15 09:18N 53°45' E 006°27'912.6
2014-Sep-15 08:33N 53°42' E 006°12'1212.1
2014-Sep-15 07:33N 53°39' E 005°53'1211.7
2014-Sep-15 06:33N 53°35' E 005°34'1111.2
2014-Sep-15 05:33N 53°32' E 005°16'1111.1
2014-Sep-15 04:33N 53°28' E 004°58'7911.3
2014-Sep-14 21:33N 52°20' E 003°52'1312.9
2014-Sep-14 20:33N 52°07' E 003°54'9 9.3
2014-Sep-14 19:33N 51°59' E 004°03'1111.3
2014-Sep-14 18:34N 51°54' E 004°19'1 0.0
2014-Sep-13 18:24N 51°53' E 004°21'0 0.0
2014-Sep-13 03:18N 51°53' E 004°21'0 0.0
2014-Sep-12 15:24N 51°53' E 004°21'2 1.8
2014-Sep-12 14:33N 51°54' E 004°18'1111.1
2014-Sep-12 13:34N 51°59' E 004°03'  

Dump ship's entire track history